Time;durP1;ratioP1;P1;durP2;ratioP2;P2;SDS_P1;SDS_P2;PMS_P1;PMS_P2;Temp;Humidity;BMP_temperature;BMP_pressure;BME280_temperature;BME280_humidity;BME280_pressure;Samples;Min_cycle;Max_cycle;Signal;HPM_P1;HPM_P2
2021/08/10 00:00:07;;;;;;;15.78;4.53;;;;;;;23.05;74.25;100501.75;1725668;81;20936;-42
2021/08/10 00:02:35;;;;;;;40.63;6.33;;;;;;;23.03;74.36;100506.30;1742845;81;21010;-42
2021/08/10 00:05:06;;;;;;;40.12;5.70;;;;;;;23.01;74.35;100513.48;1674852;85;21123;-42
2021/08/10 00:07:32;;;;;;;23.55;5.40;;;;;;;22.98;74.11;100518.98;1720095;81;21040;-40
2021/08/10 00:09:58;;;;;;;19.55;5.53;;;;;;;22.94;74.19;100520.52;1732887;81;20956;-41
2021/08/10 00:12:25;;;;;;;12.47;4.42;;;;;;;22.91;74.25;100514.14;1640459;85;21549;-43
2021/08/10 00:14:51;;;;;;;13.15;4.20;;;;;;;22.88;74.42;100514.36;1746013;81;21549;-40
2021/08/10 00:17:19;;;;;;;11.33;3.35;;;;;;;22.85;74.62;100513.71;1718249;81;21171;-39
2021/08/10 00:19:45;;;;;;;9.43;3.50;;;;;;;22.81;74.58;100509.97;1729574;81;21198;-39
2021/08/10 00:22:12;;;;;;;6.92;3.67;;;;;;;22.78;74.89;100503.59;1714690;81;21008;-39
2021/08/10 00:24:39;;;;;;;7.72;4.05;;;;;;;22.73;75.22;100507.00;1732917;81;20920;-40
2021/08/10 00:27:05;;;;;;;10.63;3.80;;;;;;;22.71;75.38;100506.75;1728202;81;20967;-39
2021/08/10 00:29:31;;;;;;;6.22;3.95;;;;;;;22.66;75.08;100502.64;1731318;81;21023;-40
2021/08/10 00:31:59;;;;;;;5.53;3.87;;;;;;;22.65;75.22;100496.14;1736022;81;20940;-40
2021/08/10 00:34:25;;;;;;;22.15;4.40;;;;;;;22.59;75.41;100500.03;1717415;81;20928;-40
2021/08/10 00:36:53;;;;;;;26.52;4.20;;;;;;;22.56;75.47;100496.30;1734753;81;20985;-40
2021/08/10 00:39:20;;;;;;;35.08;5.90;;;;;;;22.53;75.55;100507.06;1717167;81;21537;-39
2021/08/10 00:41:47;;;;;;;20.92;5.03;;;;;;;22.52;75.56;100509.33;1733370;81;21016;-39
2021/08/10 00:44:14;;;;;;;25.77;4.92;;;;;;;22.50;75.52;100511.23;1739466;82;21027;-40
2021/08/10 00:46:42;;;;;;;5.33;3.50;;;;;;;22.47;75.73;100504.36;1744655;81;22324;-40
2021/08/10 00:49:10;;;;;;;7.17;3.70;;;;;;;22.46;75.85;100501.81;1726569;81;20972;-42
2021/08/10 00:51:38;;;;;;;6.53;3.47;;;;;;;22.44;76.01;100501.07;1653278;85;21016;-41
2021/08/10 00:54:09;;;;;;;9.18;3.75;;;;;;;22.38;76.13;100492.64;1736667;81;22215;-40
2021/08/10 00:56:36;;;;;;;12.35;3.62;;;;;;;22.35;76.28;100496.77;1718734;81;21017;-41
2021/08/10 00:59:03;;;;;;;10.95;3.87;;;;;;;22.32;76.50;100494.84;1672227;84;21579;-40
2021/08/10 01:01:32;;;;;;;51.33;5.83;;;;;;;22.31;76.60;100499.73;1731867;81;20972;-40
2021/08/10 01:03:59;;;;;;;61.85;6.90;;;;;;;22.28;76.65;100494.68;1722217;81;21582;-41
2021/08/10 01:07:12;;;;;;;57.98;5.62;;;;;;;22.26;76.73;100501.36;1734541;81;21075;-42
2021/08/10 01:10:10;;;;;;;16.37;4.72;;;;;;;22.23;76.80;100504.20;1714260;81;21668;-40
2021/08/10 01:13:04;;;;;;;13.43;4.25;;;;;;;22.19;76.75;100500.09;1716546;81;20944;-40
2021/08/10 01:15:41;;;;;;;10.23;4.12;;;;;;;22.16;76.89;100500.30;1730561;81;20984;-40
2021/08/10 01:18:27;;;;;;;11.28;3.55;;;;;;;22.12;77.16;100490.42;1739847;81;21000;-41
2021/08/10 01:21:05;;;;;;;25.77;4.70;;;;;;;22.08;77.32;100499.48;1730775;81;21144;-41
2021/08/10 01:23:33;;;;;;;36.90;5.40;;;;;;;22.03;77.48;100501.09;1734955;81;20990;-41
2021/08/10 01:26:29;;;;;;;19.85;4.70;;;;;;;21.96;77.69;100501.97;1667741;84;20996;-41
2021/08/10 01:29:30;;;;;;;25.32;5.15;;;;;;;21.94;77.93;100501.71;1736331;81;20988;-41
2021/08/10 01:31:57;;;;;;;16.73;4.00;;;;;;;21.93;78.12;100507.93;1751395;81;20984;-41
2021/08/10 01:34:45;;;;;;;10.40;3.80;;;;;;;21.88;78.12;100502.95;1747467;81;21145;-41
2021/08/10 01:37:26;;;;;;;6.53;3.67;;;;;;;21.86;78.25;100505.33;1722411;81;21457;-41
2021/08/10 01:39:58;;;;;;;9.05;3.98;;;;;;;21.81;78.40;100505.63;1736708;81;21511;-40
2021/08/10 01:42:26;;;;;;;9.30;3.95;;;;;;;21.80;78.48;100511.84;1748016;81;21035;-40
2021/08/10 01:44:55;;;;;;;31.95;4.55;;;;;;;21.78;78.50;100509.29;1743200;81;21015;-41
2021/08/10 01:47:23;;;;;;;16.50;4.95;;;;;;;21.76;78.60;100511.19;1709747;81;21150;-41
2021/08/10 01:49:51;;;;;;;10.98;3.50;;;;;;;21.73;78.69;100514.02;1752145;81;20935;-40
2021/08/10 01:52:22;;;;;;;8.93;3.50;;;;;;;21.72;78.78;100512.79;1667143;84;20953;-40
2021/08/10 01:54:50;;;;;;;7.22;3.52;;;;;;;21.70;78.83;100511.59;1721697;81;20976;-41
2021/08/10 01:57:18;;;;;;;7.70;3.40;;;;;;;21.67;79.08;100509.16;1686406;85;20953;-40
2021/08/10 01:59:50;;;;;;;6.47;3.70;;;;;;;21.63;79.20;100512.41;1688004;84;21158;-39
2021/08/10 02:02:17;;;;;;;9.55;4.12;;;;;;;21.58;79.19;100510.55;1719074;83;21544;-40
2021/08/10 02:04:47;;;;;;;18.82;4.55;;;;;;;21.54;79.25;100508.58;1712793;82;20957;-40
2021/08/10 02:07:13;;;;;;;11.57;3.50;;;;;;;21.52;79.17;100513.09;1685810;84;21012;-40
2021/08/10 02:09:41;;;;;;;17.87;3.85;;;;;;;21.51;79.44;100514.53;1746245;81;20991;-40
2021/08/10 02:12:09;;;;;;;23.02;4.28;;;;;;;21.48;79.49;100523.95;1731959;81;21180;-40
2021/08/10 02:14:37;;;;;;;30.65;5.28;;;;;;;21.44;79.68;100515.84;1747257;81;21588;-40
2021/08/10 02:17:07;;;;;;;18.48;4.35;;;;;;;21.37;79.69;100521.50;1749339;81;21099;-40
2021/08/10 02:19:35;;;;;;;35.60;4.17;;;;;;;21.35;79.74;100516.81;1747745;81;21098;-41
2021/08/10 02:22:10;;;;;;;31.80;4.95;;;;;;;21.32;79.82;100522.73;1737494;81;22258;-41
2021/08/10 02:25:01;;;;;;;25.40;5.33;;;;;;;21.28;79.96;100514.20;1743005;81;21111;-40
2021/08/10 02:27:47;;;;;;;17.12;4.60;;;;;;;21.24;80.31;100516.16;1701136;82;20963;-39
2021/08/10 02:30:18;;;;;;;15.40;3.90;;;;;;;21.21;80.22;100513.73;1743788;81;21114;-40
2021/08/10 02:32:45;;;;;;;34.38;4.87;;;;;;;21.17;80.32;100512.23;1721506;81;21567;-39
2021/08/10 02:35:13;;;;;;;18.62;4.00;;;;;;;21.15;80.47;100511.48;1734105;81;21040;-40
2021/08/10 02:37:39;;;;;;;17.75;3.70;;;;;;;21.12;80.53;100505.55;1740595;81;21075;-40
2021/08/10 02:40:09;;;;;;;13.32;3.70;;;;;;;21.06;80.66;100505.00;1656795;85;20922;-40
2021/08/10 02:42:37;;;;;;;19.12;3.80;;;;;;;21.05;80.66;100502.45;1727012;81;20984;-40
2021/08/10 02:45:06;;;;;;;11.00;3.25;;;;;;;21.03;80.77;100499.07;1758659;81;20961;-41
2021/08/10 02:47:32;;;;;;;18.12;3.70;;;;;;;21.00;80.91;100497.50;1742384;81;21509;-41
2021/08/10 02:49:59;;;;;;;24.40;4.30;;;;;;;20.98;81.18;100495.89;1725355;81;21151;-42
2021/08/10 02:52:26;;;;;;;16.02;3.58;;;;;;;20.95;81.27;100494.28;1724881;81;21048;-41
2021/08/10 02:54:53;;;;;;;7.60;3.70;;;;;;;20.92;81.21;100499.73;1694660;82;21046;-43
2021/08/10 02:57:46;;;;;;;7.87;4.17;;;;;;;20.91;81.23;100491.47;1737131;81;20964;-41
2021/08/10 03:00:14;;;;;;;11.00;3.30;;;;;;;20.90;81.31;100503.79;1715504;81;21584;-39
2021/08/10 03:02:50;;;;;;;6.67;3.47;;;;;;;20.88;81.27;100501.73;1736581;81;21137;-42
2021/08/10 03:05:18;;;;;;;4.87;3.67;;;;;;;20.89;81.26;100498.61;1718850;82;20948;-42
2021/08/10 03:07:52;;;;;;;21.42;3.62;;;;;;;20.90;81.20;100495.03;1718998;81;21063;-41
2021/08/10 03:10:19;;;;;;;6.05;3.70;;;;;;;20.91;81.10;100500.67;1757024;81;21556;-41
2021/08/10 03:12:51;;;;;;;17.00;4.20;;;;;;;20.93;80.98;100502.28;1746053;81;21497;-42
2021/08/10 03:15:26;;;;;;;12.50;3.95;;;;;;;20.94;80.87;100494.77;1701260;84;21541;-40
2021/08/10 03:17:59;;;;;;;7.28;3.25;;;;;;;20.96;80.78;100500.77;1743262;82;21518;-39
2021/08/10 03:20:25;;;;;;;13.58;3.45;;;;;;;20.98;80.86;100499.38;1737070;81;20914;-40
2021/08/10 03:22:52;;;;;;;13.05;3.12;;;;;;;21.00;80.80;100502.76;1725258;81;20981;-41
2021/08/10 03:25:20;;;;;;;12.43;3.77;;;;;;;21.02;80.70;100500.02;1721207;82;20995;-40
2021/08/10 03:27:47;;;;;;;12.30;3.42;;;;;;;21.03;80.49;100501.70;1732425;81;21135;-40
2021/08/10 03:30:14;;;;;;;4.22;3.10;;;;;;;21.06;80.26;100501.05;1735808;81;20964;-42
2021/08/10 03:32:42;;;;;;;25.35;3.30;;;;;;;21.11;80.19;100507.36;1736051;81;20935;-39
2021/08/10 03:35:10;;;;;;;35.00;4.25;;;;;;;21.16;80.06;100509.23;1705935;81;20974;-40
2021/08/10 03:37:37;;;;;;;30.17;4.75;;;;;;;21.22;80.08;100512.78;1663163;84;20960;-41
2021/08/10 03:40:06;;;;;;;10.78;3.55;;;;;;;21.29;79.86;100509.76;1737518;81;21932;-40
2021/08/10 03:42:33;;;;;;;5.80;3.85;;;;;;;21.35;79.44;100509.40;1632416;85;21015;-39
2021/08/10 03:45:01;;;;;;;7.42;3.65;;;;;;;21.38;78.84;100503.94;1714636;82;21062;-40
2021/08/10 03:47:27;;;;;;;4.60;3.58;;;;;;;21.45;78.80;100500.42;1718951;82;21014;-41
2021/08/10 03:49:55;;;;;;;12.88;3.92;;;;;;;21.49;78.54;100500.13;1707934;83;21011;-41
2021/08/10 03:52:22;;;;;;;10.75;4.50;;;;;;;21.53;78.12;100503.42;1718061;81;21882;-43
2021/08/10 03:54:49;;;;;;;8.08;4.10;;;;;;;21.57;78.53;100502.73;1722564;82;21019;-39
2021/08/10 03:57:19;;;;;;;10.30;4.60;;;;;;;21.62;78.17;100496.73;1710321;82;20964;-41
2021/08/10 03:59:51;;;;;;;10.13;4.62;;;;;;;21.67;78.15;100496.81;1706182;83;20991;-41
2021/08/10 04:02:18;;;;;;;8.03;3.87;;;;;;;21.74;78.04;100497.27;1715876;82;21833;-41
2021/08/10 04:04:45;;;;;;;16.42;4.20;;;;;;;21.81;77.76;100494.59;1678529;83;21980;-40
2021/08/10 04:07:12;;;;;;;8.20;3.77;;;;;;;21.86;77.34;100495.63;1724386;82;20968;-41
2021/08/10 04:09:40;;;;;;;10.68;4.12;;;;;;;21.94;77.42;100495.13;1723794;82;20932;-42
2021/08/10 04:12:11;;;;;;;7.92;3.87;;;;;;;22.01;76.99;100492.94;1733414;82;21505;-41
2021/08/10 04:14:41;;;;;;;7.12;3.98;;;;;;;22.07;76.33;100489.89;1733750;82;20976;-41
2021/08/10 04:17:10;;;;;;;5.90;3.87;;;;;;;22.15;76.59;100492.02;1698756;83;21031;-41
2021/08/10 04:19:47;;;;;;;10.00;4.12;;;;;;;22.19;76.20;100488.23;1685981;83;21141;-41
2021/08/10 04:22:15;;;;;;;9.08;3.55;;;;;;;22.19;75.97;100494.81;1722594;82;21100;-40
2021/08/10 04:24:42;;;;;;;5.97;3.47;;;;;;;22.22;75.77;100484.06;1719695;82;21565;-41
2021/08/10 04:27:13;;;;;;;4.50;3.42;;;;;;;22.25;76.47;100485.17;1695944;82;21022;-40
2021/08/10 04:29:40;;;;;;;7.83;4.40;;;;;;;22.24;76.40;100489.61;1717837;82;21192;-41
2021/08/10 04:32:08;;;;;;;14.05;3.83;;;;;;;22.23;76.46;100495.84;1730545;82;21584;-40
2021/08/10 04:34:35;;;;;;;13.93;3.75;;;;;;;22.21;76.23;100491.11;1732277;82;21514;-40
2021/08/10 04:37:06;;;;;;;4.75;3.80;;;;;;;22.30;76.33;100491.46;1705426;82;20909;-41
2021/08/10 04:39:32;;;;;;;11.35;4.10;;;;;;;22.38;75.90;100483.41;1716366;82;21020;-40
2021/08/10 04:41:59;;;;;;;4.78;4.08;;;;;;;22.38;75.60;100483.41;1726610;81;21140;-40
2021/08/10 04:44:25;;;;;;;10.90;4.00;;;;;;;22.41;75.82;100487.61;1720384;82;20975;-40
2021/08/10 04:46:52;;;;;;;7.25;4.00;;;;;;;22.45;76.13;100493.04;1742878;81;21087;-41
2021/08/10 04:49:20;;;;;;;10.63;4.22;;;;;;;22.45;75.80;100497.00;1745079;81;20992;-40
2021/08/10 04:51:46;;;;;;;6.12;3.80;;;;;;;22.45;75.72;100493.53;1723785;81;20961;-40
2021/08/10 04:54:16;;;;;;;18.17;4.75;;;;;;;22.46;76.36;100492.58;1711178;81;21147;-40
2021/08/10 04:56:43;;;;;;;9.35;4.10;;;;;;;22.51;75.86;100491.36;1714752;81;21110;-42
2021/08/10 04:59:10;;;;;;;8.58;3.80;;;;;;;22.55;75.73;100490.66;1735724;81;21068;-42
2021/08/10 05:01:39;;;;;;;13.08;4.22;;;;;;;22.63;76.13;100481.77;1728900;81;21838;-42
2021/08/10 05:04:06;;;;;;;9.25;4.28;;;;;;;22.74;75.97;100488.08;1727827;81;20946;-42
2021/08/10 05:06:36;;;;;;;13.38;4.28;;;;;;;22.79;74.33;100481.53;1746371;81;21802;-41
2021/08/10 05:09:06;;;;;;;10.00;4.55;;;;;;;22.82;74.68;100484.41;1677343;84;20943;-41
2021/08/10 05:11:34;;;;;;;13.03;5.10;;;;;;;22.88;74.84;100476.09;1725874;81;21049;-41
2021/08/10 05:14:00;;;;;;;9.00;4.25;;;;;;;22.94;74.91;100480.07;1722282;81;22265;-40
2021/08/10 05:16:27;;;;;;;15.63;4.35;;;;;;;22.96;74.53;100479.03;1731144;81;21032;-40
2021/08/10 05:18:55;;;;;;;5.62;3.75;;;;;;;23.02;74.27;100481.72;1734383;81;20956;-42
2021/08/10 05:21:23;;;;;;;18.95;4.70;;;;;;;23.07;74.33;100480.05;1743626;81;21514;-41
2021/08/10 05:23:51;;;;;;;14.05;4.35;;;;;;;23.14;74.16;100486.60;1741895;81;21022;-40
2021/08/10 05:26:19;;;;;;;10.43;4.28;;;;;;;23.22;74.29;100481.61;1671850;85;21012;-40
2021/08/10 05:28:46;;;;;;;12.05;3.42;;;;;;;23.30;73.92;100477.59;1743546;81;20987;-48
2021/08/10 05:31:16;;;;;;;10.32;4.83;;;;;;;23.39;73.96;100475.63;1722126;81;20996;-41
2021/08/10 05:33:42;;;;;;;4.35;3.98;;;;;;;23.46;73.69;100468.08;1736282;81;20932;-41
2021/08/10 05:36:09;;;;;;;10.45;4.40;;;;;;;23.48;73.29;100470.99;1670838;84;21016;-41
2021/08/10 05:38:36;;;;;;;15.53;4.87;;;;;;;23.47;72.82;100468.45;1711047;81;21027;-40
2021/08/10 05:41:03;;;;;;;12.70;4.35;;;;;;;23.42;72.81;100472.77;1728779;81;21015;-40
2021/08/10 05:43:32;;;;;;;7.72;4.03;;;;;;;23.46;73.12;100470.27;1727497;81;21816;-41
2021/08/10 05:46:01;;;;;;;10.32;5.05;;;;;;;23.54;73.30;100475.81;1735384;81;20937;-41
2021/08/10 05:48:27;;;;;;;9.08;4.80;;;;;;;23.58;73.56;100473.80;1724831;81;20952;-40
2021/08/10 05:50:58;;;;;;;10.25;4.78;;;;;;;23.63;73.09;100472.16;1741872;81;20996;-40
2021/08/10 05:53:26;;;;;;;5.05;4.45;;;;;;;23.65;72.18;100469.75;1735917;81;21502;-42
2021/08/10 05:58:12;;;;;;;8.65;5.00;;;;;;;23.68;72.11;100471.34;1804830;78;22566;-41
2021/08/10 06:00:39;;;;;;;7.35;5.15;;;;;;;23.64;72.11;100469.88;1757567;80;20951;-41
2021/08/10 06:03:08;;;;;;;12.25;4.97;;;;;;;23.68;72.10;100472.66;1754967;80;22425;-40
2021/08/10 06:05:34;;;;;;;16.00;4.60;;;;;;;23.76;71.68;100471.60;1772213;80;21532;-40
2021/08/10 06:08:01;;;;;;;13.00;5.17;;;;;;;23.85;71.11;100474.05;1763039;80;22182;-40
2021/08/10 06:10:31;;;;;;;8.63;4.60;;;;;;;23.95;71.38;100468.92;1755148;80;20949;-40
2021/08/10 06:12:58;;;;;;;10.15;4.42;;;;;;;24.09;71.61;100470.55;1755753;80;20940;-41
2021/08/10 06:15:25;;;;;;;8.18;4.42;;;;;;;24.28;70.35;100472.63;1755863;80;21147;-42
2021/08/10 06:17:52;;;;;;;8.00;4.60;;;;;;;24.45;70.46;100467.86;1757756;80;21464;-41
2021/08/10 06:20:20;;;;;;;9.18;4.50;;;;;;;24.70;69.80;100460.17;1770525;80;20955;-41
2021/08/10 06:22:46;;;;;;;12.58;4.80;;;;;;;24.96;68.79;100466.09;1755711;80;20925;-41
2021/08/10 06:25:15;;;;;;;12.82;4.90;;;;;;;25.05;67.13;100463.67;1763380;80;21075;-41
2021/08/10 06:27:43;;;;;;;10.65;4.85;;;;;;;25.16;67.23;100464.99;1754948;80;21174;-41
2021/08/10 06:30:13;;;;;;;4.60;4.20;;;;;;;25.21;65.83;100462.81;1731071;80;20980;-42
2021/08/10 06:32:40;;;;;;;9.08;4.72;;;;;;;25.33;66.47;100460.98;1740229;80;20975;-42
2021/08/10 06:35:10;;;;;;;13.48;5.12;;;;;;;25.59;65.89;100467.78;1755756;80;21010;-40
2021/08/10 06:37:37;;;;;;;13.75;5.50;;;;;;;25.71;65.93;100461.95;1751186;80;21882;-41
2021/08/10 06:40:05;;;;;;;14.90;5.22;;;;;;;25.99;65.53;100463.63;1734027;81;21985;-41
2021/08/10 06:42:32;;;;;;;9.43;5.45;;;;;;;26.11;63.47;100460.78;1755485;80;21555;-42
2021/08/10 06:45:00;;;;;;;13.00;5.30;;;;;;;26.12;63.17;100457.66;1754848;80;21004;-42
2021/08/10 06:47:28;;;;;;;11.20;5.28;;;;;;;26.11;64.26;100455.98;1756673;80;21023;-42
2021/08/10 06:49:55;;;;;;;11.65;5.40;;;;;;;26.07;63.20;100460.70;1754453;80;20933;-42
2021/08/10 06:52:23;;;;;;;14.28;5.62;;;;;;;26.00;64.13;100474.59;1744437;80;21145;-43
2021/08/10 06:54:50;;;;;;;10.70;4.60;;;;;;;25.94;63.91;100475.97;1725111;81;21030;-42
2021/08/10 06:57:17;;;;;;;10.55;4.67;;;;;;;25.90;63.73;100477.20;1727178;81;21569;-42
2021/08/10 06:59:43;;;;;;;9.53;4.95;;;;;;;25.80;64.92;100472.64;1725714;81;20967;-42
2021/08/10 07:02:11;;;;;;;9.35;4.78;;;;;;;25.78;64.61;100471.93;1727192;82;21520;-40
2021/08/10 07:04:37;;;;;;;10.82;5.00;;;;;;;25.80;64.47;100473.97;1730082;81;21128;-41
2021/08/10 07:07:04;;;;;;;8.23;4.75;;;;;;;25.88;65.00;100468.50;1718367;81;20992;-40
2021/08/10 07:09:33;;;;;;;11.73;4.97;;;;;;;26.01;65.03;100469.64;1726702;81;21003;-42
2021/08/10 07:12:03;;;;;;;16.30;4.92;;;;;;;26.06;64.08;100464.31;1730252;81;20983;-41
2021/08/10 07:14:31;;;;;;;12.35;5.03;;;;;;;26.14;63.86;100466.33;1713855;82;21032;-40
2021/08/10 07:17:00;;;;;;;21.55;5.17;;;;;;;26.23;64.00;100463.42;1649039;85;21725;-42
2021/08/10 07:19:28;;;;;;;13.90;4.92;;;;;;;26.27;63.97;100460.00;1672263;84;20988;-41
2021/08/10 07:21:55;;;;;;;12.73;5.00;;;;;;;26.40;64.46;100454.02;1654648;85;20979;-41
2021/08/10 07:24:23;;;;;;;5.47;4.50;;;;;;;26.53;63.40;100452.47;1657093;84;21490;-42
2021/08/10 07:26:52;;;;;;;12.95;5.15;;;;;;;26.62;63.11;100447.69;1678534;83;20976;-42
2021/08/10 07:29:19;;;;;;;20.88;4.55;;;;;;;26.65;63.16;100447.91;1686333;83;21168;-42
2021/08/10 07:31:49;;;;;;;11.75;4.28;;;;;;;26.82;63.74;100453.08;1687783;84;20896;-41
2021/08/10 07:34:18;;;;;;;8.70;4.70;;;;;;;26.96;61.86;100450.09;1682931;83;21465;-41
2021/08/10 07:36:45;;;;;;;10.53;5.08;;;;;;;26.96;61.32;100455.40;1667035;83;21581;-41
2021/08/10 07:39:11;;;;;;;11.70;4.90;;;;;;;26.93;61.04;100447.70;1678037;83;21541;-42
2021/08/10 07:41:38;;;;;;;10.50;4.67;;;;;;;26.96;61.46;100450.09;1678003;85;21594;-41
2021/08/10 07:44:07;;;;;;;12.15;5.15;;;;;;;26.99;61.16;100452.94;1682174;84;21023;-41
2021/08/10 07:46:36;;;;;;;10.90;5.15;;;;;;;27.06;60.54;100457.23;1682646;84;21011;-42
2021/08/10 07:49:03;;;;;;;9.30;4.75;;;;;;;27.17;61.18;100456.27;1680143;84;20986;-41
2021/08/10 07:51:30;;;;;;;7.50;4.62;;;;;;;27.26;60.52;100455.44;1679015;85;21086;-42
2021/08/10 07:53:58;;;;;;;6.65;4.37;;;;;;;27.44;59.91;100456.95;1680374;84;21215;-42
2021/08/10 07:56:25;;;;;;;10.32;4.30;;;;;;;27.51;59.29;100466.08;1686269;84;21067;-42
2021/08/10 07:58:51;;;;;;;13.22;4.78;;;;;;;27.63;57.93;100458.81;1673453;84;20927;-42
2021/08/10 08:01:18;;;;;;;17.42;4.75;;;;;;;27.70;57.78;100458.24;1646031;84;20996;-42
2021/08/10 08:03:45;;;;;;;9.60;4.53;;;;;;;27.83;57.48;100458.30;1672335;84;20999;-42
2021/08/10 08:06:11;;;;;;;10.08;5.03;;;;;;;27.92;57.23;100450.48;1666042;84;21108;-41
2021/08/10 08:08:39;;;;;;;19.75;5.12;;;;;;;27.96;56.67;100455.34;1673044;84;20970;-42
2021/08/10 08:11:06;;;;;;;9.48;5.30;;;;;;;27.88;57.49;100447.73;1675336;84;21011;-41
2021/08/10 08:13:33;;;;;;;8.90;4.53;;;;;;;28.04;57.85;100444.00;1684866;84;20991;-42
2021/08/10 08:16:01;;;;;;;14.28;5.37;;;;;;;28.27;56.75;100446.84;1688563;84;20916;-42
2021/08/10 08:18:28;;;;;;;9.35;4.90;;;;;;;28.43;55.83;100438.28;1658373;84;21931;-43
2021/08/10 08:20:56;;;;;;;11.48;5.25;;;;;;;28.50;55.79;100432.70;1692911;84;20947;-42
2021/08/10 08:23:26;;;;;;;18.20;5.05;;;;;;;28.57;55.27;100426.31;1695018;84;20975;-42
2021/08/10 08:25:53;;;;;;;15.30;5.22;;;;;;;28.62;54.91;100427.52;1674272;85;21019;-42
2021/08/10 08:28:19;;;;;;;9.65;4.28;;;;;;;28.66;54.99;100421.42;1665956;84;21050;-43
2021/08/10 08:30:47;;;;;;;7.22;4.10;;;;;;;28.61;54.44;100417.05;1676508;84;21135;-42
2021/08/10 08:33:15;;;;;;;9.30;4.25;;;;;;;28.51;55.62;100413.09;1627449;85;20983;-41
2021/08/10 08:35:41;;;;;;;10.48;4.22;;;;;;;28.54;54.61;100416.27;1675585;84;21022;-42
2021/08/10 08:38:09;;;;;;;8.13;4.17;;;;;;;28.53;53.90;100409.28;1672584;84;21047;-43
2021/08/10 08:40:37;;;;;;;11.40;4.25;;;;;;;28.52;53.81;100408.93;1665774;84;20964;-41
2021/08/10 08:43:04;;;;;;;8.60;4.00;;;;;;;28.42;54.46;100404.16;1676618;85;22582;-41
2021/08/10 08:45:33;;;;;;;10.35;4.20;;;;;;;28.42;55.00;100400.64;1675000;84;21242;-42
2021/08/10 08:48:02;;;;;;;13.40;4.40;;;;;;;28.59;54.11;100398.55;1629064;85;21038;-43
2021/08/10 08:50:31;;;;;;;8.45;4.37;;;;;;;28.67;54.12;100392.00;1635091;86;21554;-41
2021/08/10 08:52:58;;;;;;;15.88;4.20;;;;;;;28.90;54.23;100388.11;1647337;85;20957;-42
2021/08/10 08:55:25;;;;;;;12.68;4.75;;;;;;;29.06;53.19;100386.11;1637916;85;21140;-41
2021/08/10 08:57:52;;;;;;;8.25;4.33;;;;;;;29.12;52.95;100388.16;1709638;81;20952;-41
2021/08/10 09:00:18;;;;;;;6.50;5.12;;;;;;;29.06;52.14;100379.45;1728739;82;21014;-41
2021/08/10 09:02:46;;;;;;;11.80;5.42;;;;;;;28.94;51.77;100386.34;1724633;81;20948;-42
2021/08/10 09:05:15;;;;;;;16.73;5.60;;;;;;;28.77;52.39;100375.95;1728235;81;20999;-41
2021/08/10 09:07:42;;;;;;;13.55;5.08;;;;;;;28.68;52.12;100376.85;1729918;81;21158;-40
2021/08/10 09:10:14;;;;;;;14.93;5.10;;;;;;;28.76;53.84;100381.44;1704480;83;20990;-42
2021/08/10 09:12:53;;;;;;;10.48;3.90;;;;;;;29.00;52.90;100382.22;1716484;82;21502;-42
2021/08/10 09:15:44;;;;;;;6.67;4.03;;;;;;;29.25;50.55;100373.13;1729724;81;20943;-42
2021/08/10 09:18:11;;;;;;;14.73;4.67;;;;;;;29.29;50.75;100377.16;1690813;83;21528;-43
2021/08/10 09:20:39;;;;;;;9.33;4.33;;;;;;;29.40;50.50;100377.42;1690730;83;22242;-42
2021/08/10 09:23:06;;;;;;;8.80;3.92;;;;;;;29.49;51.00;100382.36;1672135;84;20944;-43
2021/08/10 09:25:35;;;;;;;7.40;3.72;;;;;;;29.87;50.99;100372.31;1681680;84;21500;-44
2021/08/10 09:28:08;;;;;;;9.10;3.35;;;;;;;30.25;50.41;100377.39;1656108;84;21028;-44
2021/08/10 09:30:37;;;;;;;6.50;3.80;;;;;;;30.46;49.35;100376.16;1655541;85;21007;-42
2021/08/10 09:33:07;;;;;;;8.25;3.45;;;;;;;30.59;48.84;100372.52;1656998;85;21183;-43
2021/08/10 09:35:38;;;;;;;4.37;3.62;;;;;;;30.68;48.71;100368.89;1679530;84;21046;-43
2021/08/10 09:38:17;;;;;;;14.80;3.92;;;;;;;30.74;48.72;100360.73;1677565;84;20956;-43
2021/08/10 09:40:47;;;;;;;17.20;4.15;;;;;;;30.73;48.50;100360.40;1676785;84;21006;-41
2021/08/10 09:43:29;;;;;;;9.05;3.33;;;;;;;30.70;48.94;100354.56;1678856;84;20998;-43
2021/08/10 09:46:16;;;;;;;10.60;3.52;;;;;;;30.80;50.39;100353.91;1678456;84;21494;-42
2021/08/10 09:48:57;;;;;;;11.95;3.60;;;;;;;31.00;48.62;100354.95;1673510;84;21032;-43
2021/08/10 09:51:28;;;;;;;8.68;3.37;;;;;;;31.04;48.31;100352.28;1670731;83;21569;-43
2021/08/10 09:54:01;;;;;;;7.55;3.10;;;;;;;30.92;49.78;100355.25;1648510;84;21039;-43
2021/08/10 09:56:53;;;;;;;9.00;3.33;;;;;;;31.19;49.94;100345.78;1681744;83;21559;-42
2021/08/10 09:59:19;;;;;;;11.03;3.55;;;;;;;31.46;47.44;100346.47;1661738;84;21344;-41
2021/08/10 10:01:49;;;;;;;9.78;3.55;;;;;;;31.58;47.29;100341.61;1660730;84;21059;-42
2021/08/10 10:04:23;;;;;;;14.28;3.70;;;;;;;31.63;44.76;100344.61;1660304;85;21019;-42
2021/08/10 10:07:00;;;;;;;13.03;4.47;;;;;;;31.51;45.81;100340.95;1661850;84;20992;-43
2021/08/10 10:09:28;;;;;;;14.35;4.37;;;;;;;31.62;46.35;100341.60;1645621;85;21029;-43
2021/08/10 10:11:56;;;;;;;14.65;3.98;;;;;;;31.74;47.69;100344.27;1662615;84;21253;-43
2021/08/10 10:14:23;;;;;;;13.35;3.55;;;;;;;31.79;46.12;100343.77;1658767;85;20985;-46
2021/08/10 10:16:51;;;;;;;7.35;3.52;;;;;;;31.71;47.13;100340.60;1714397;82;21028;-41
2021/08/10 10:19:20;;;;;;;6.85;3.20;;;;;;;31.68;46.54;100337.75;1703915;82;20956;-41
2021/08/10 10:21:58;;;;;;;8.08;3.45;;;;;;;31.75;45.86;100347.27;1717328;82;20955;-41
2021/08/10 10:24:26;;;;;;;9.68;3.65;;;;;;;31.73;45.28;100343.94;1713665;82;21090;-42
2021/08/10 10:27:02;;;;;;;10.43;2.80;;;;;;;31.59;44.93;100334.77;1706369;82;21562;-41
2021/08/10 10:29:30;;;;;;;14.28;3.42;;;;;;;31.66;46.21;100336.23;1673671;83;21626;-42
2021/08/10 10:31:57;;;;;;;16.02;3.58;;;;;;;31.63;45.36;100334.76;1716211;82;21734;-43
2021/08/10 10:34:24;;;;;;;9.90;3.42;;;;;;;31.74;44.73;100336.73;1713889;82;20933;-42
2021/08/10 10:36:52;;;;;;;10.60;3.35;;;;;;;31.95;44.26;100329.02;1703526;82;21063;-43
2021/08/10 10:39:30;;;;;;;8.15;3.55;;;;;;;32.14;45.15;100327.44;1678042;83;21535;-43
2021/08/10 10:42:05;;;;;;;11.90;3.12;;;;;;;32.21;44.62;100325.73;1679158;83;20952;-41
2021/08/10 10:44:51;;;;;;;9.98;3.70;;;;;;;32.26;43.41;100326.07;1679403;83;21079;-40
2021/08/10 10:47:34;;;;;;;6.53;3.40;;;;;;;32.21;44.72;100329.26;1675599;83;21529;-40
2021/08/10 10:50:05;;;;;;;17.07;3.65;;;;;;;32.41;44.51;100328.02;1662620;85;21783;-42
2021/08/10 10:52:33;;;;;;;15.25;3.52;;;;;;;32.55;42.65;100323.27;1682602;83;22309;-41
2021/08/10 10:55:01;;;;;;;10.23;3.33;;;;;;;32.71;41.99;100315.64;1683138;83;21067;-42
2021/08/10 10:57:34;;;;;;;9.05;3.35;;;;;;;32.87;42.49;100310.67;1714359;82;21000;-41
2021/08/10 11:00:14;;;;;;;14.50;3.90;;;;;;;32.98;41.65;100317.48;1663258;82;21024;-42
2021/08/10 11:02:41;;;;;;;11.48;3.45;;;;;;;32.86;42.51;100313.02;1696514;83;21162;-42
2021/08/10 11:05:17;;;;;;;13.28;3.42;;;;;;;32.95;40.81;100315.98;1679280;83;20969;-42
2021/08/10 11:07:47;;;;;;;10.03;3.40;;;;;;;32.93;40.87;100303.27;1704980;82;21114;-43
2021/08/10 11:10:36;;;;;;;5.70;2.85;;;;;;;32.80;41.79;100305.18;1703636;83;21052;-41
2021/08/10 11:13:05;;;;;;;6.22;3.08;;;;;;;32.85;41.78;100305.17;1697354;83;22166;-43
2021/08/10 11:15:49;;;;;;;10.75;3.15;;;;;;;32.69;43.00;100308.28;1673663;82;22464;-41
2021/08/10 11:18:21;;;;;;;12.25;3.83;;;;;;;32.81;41.60;100302.02;1699692;83;21019;-42
2021/08/10 11:20:51;;;;;;;8.65;3.22;;;;;;;32.87;42.93;100291.09;1700885;82;21022;-42
2021/08/10 11:23:26;;;;;;;10.78;3.40;;;;;;;33.05;42.47;100293.48;1701773;83;21002;-43
2021/08/10 11:25:59;;;;;;;;;;;;;;;32.95;40.71;100286.50;1684688;83;21089;-42
2021/08/10 11:28:46;;;;;;;10.72;3.85;;;;;;;32.92;42.08;100280.17;1707897;82;21130;-42
2021/08/10 11:31:31;;;;;;;13.80;3.92;;;;;;;33.19;43.03;100281.95;1701003;82;20992;-42
2021/08/10 11:33:58;;;;;;;10.93;3.62;;;;;;;33.39;41.74;100281.44;1658806;82;21068;-41